createdAt,value
2022-12-04T00:01:49.864Z,2.80
2022-12-04T00:04:16.713Z,2.90
2022-12-04T00:06:43.287Z,2.90
2022-12-04T00:09:12.505Z,2.80
2022-12-04T00:11:39.286Z,2.80
2022-12-04T00:14:07.430Z,2.80
2022-12-04T00:16:36.525Z,2.90
2022-12-04T00:19:11.830Z,2.80
2022-12-04T00:21:38.586Z,2.80
2022-12-04T00:24:07.098Z,2.90
2022-12-04T00:26:35.452Z,2.90
2022-12-04T00:29:03.708Z,2.90
2022-12-04T00:31:31.552Z,2.90
2022-12-04T00:34:02.201Z,2.90
2022-12-04T00:36:29.490Z,2.90
2022-12-04T00:38:59.989Z,2.90
2022-12-04T00:41:29.853Z,3.00
2022-12-04T00:44:01.509Z,2.90
2022-12-04T00:46:31.043Z,2.90
2022-12-04T00:49:03.662Z,3.00
2022-12-04T00:51:35.424Z,3.00
2022-12-04T00:54:05.557Z,2.90
2022-12-04T00:56:32.318Z,2.90
2022-12-04T00:59:04.804Z,2.90
2022-12-04T01:01:36.618Z,3.00
2022-12-04T01:04:32.067Z,3.00
2022-12-04T01:07:06.149Z,2.90
2022-12-04T01:09:38.779Z,2.90
2022-12-04T01:12:09.007Z,2.90
2022-12-04T01:14:39.472Z,2.90
2022-12-04T01:17:10.624Z,2.90
2022-12-04T01:20:29.154Z,2.90
2022-12-04T01:23:01.855Z,2.90
2022-12-04T01:25:29.669Z,2.90
2022-12-04T01:27:59.549Z,2.90
2022-12-04T01:30:27.981Z,2.90
2022-12-04T01:32:58.602Z,2.90
2022-12-04T01:35:25.238Z,2.80
2022-12-04T01:37:55.606Z,2.80
2022-12-04T01:40:23.478Z,2.80
2022-12-04T01:42:51.525Z,2.90
2022-12-04T01:45:43.909Z,2.90
2022-12-04T01:48:31.735Z,2.90
2022-12-04T01:51:13.038Z,2.90
2022-12-04T01:53:48.427Z,2.90
2022-12-04T01:56:17.231Z,2.90
2022-12-04T01:58:51.973Z,2.90
2022-12-04T02:01:42.099Z,2.90
2022-12-04T02:04:12.500Z,2.90
2022-12-04T02:06:39.747Z,2.90
2022-12-04T02:09:09.654Z,2.90
2022-12-04T02:11:53.538Z,2.90
2022-12-04T02:14:26.349Z,2.90
2022-12-04T02:17:22.469Z,2.90
2022-12-04T02:20:10.778Z,2.90
2022-12-04T02:23:06.095Z,2.90
2022-12-04T02:25:43.020Z,2.90
2022-12-04T02:28:27.788Z,2.90
2022-12-04T02:31:00.348Z,2.90
2022-12-04T02:33:43.238Z,2.90
2022-12-04T02:36:20.114Z,2.90
2022-12-04T02:39:11.629Z,2.90
2022-12-04T02:41:47.169Z,2.90
2022-12-04T02:44:19.145Z,2.90
2022-12-04T02:46:56.146Z,2.90
2022-12-04T02:49:43.368Z,2.90
2022-12-04T02:52:20.017Z,2.90
2022-12-04T02:55:09.050Z,2.90
2022-12-04T02:57:42.195Z,2.90
2022-12-04T03:00:10.661Z,2.90
2022-12-04T03:03:08.266Z,2.90
2022-12-04T03:05:48.633Z,2.90
2022-12-04T03:08:24.074Z,3.00
2022-12-04T03:10:57.636Z,2.90
2022-12-04T03:13:32.215Z,2.90
2022-12-04T03:16:40.324Z,2.90
2022-12-04T03:19:21.854Z,2.90
2022-12-04T03:21:57.520Z,2.90
2022-12-04T03:24:30.270Z,3.00
2022-12-04T03:27:56.223Z,2.90
2022-12-04T03:30:56.444Z,3.00
2022-12-04T03:33:33.005Z,3.00
2022-12-04T03:36:36.147Z,3.00
2022-12-04T03:39:33.218Z,3.00
2022-12-04T03:42:15.775Z,3.00
2022-12-04T03:45:25.821Z,3.00
2022-12-04T03:48:04.307Z,3.00
2022-12-04T03:50:57.010Z,3.00
2022-12-04T03:53:41.068Z,3.00
2022-12-04T03:56:19.280Z,3.00
2022-12-04T03:59:09.321Z,3.00
2022-12-04T04:01:42.519Z,3.00
2022-12-04T04:04:21.167Z,3.00
2022-12-04T04:07:20.177Z,3.00
2022-12-04T04:09:55.857Z,3.00
2022-12-04T04:12:35.005Z,3.00
2022-12-04T04:15:31.247Z,3.00
2022-12-04T04:18:20.393Z,3.00
2022-12-04T04:21:11.003Z,3.00
2022-12-04T04:24:01.059Z,3.00
2022-12-04T04:26:34.871Z,3.00
2022-12-04T04:29:02.826Z,3.00
2022-12-04T04:31:29.437Z,3.00
2022-12-04T04:34:06.410Z,3.00
2022-12-04T04:36:57.349Z,3.00
2022-12-04T04:39:34.583Z,3.00
2022-12-04T04:42:07.684Z,3.00
2022-12-04T04:44:44.532Z,3.10
2022-12-04T04:47:21.616Z,3.10
2022-12-04T04:49:51.228Z,3.10
2022-12-04T04:52:22.528Z,3.10
2022-12-04T04:54:49.229Z,3.10
2022-12-04T04:57:27.450Z,3.00
2022-12-04T04:59:55.640Z,3.00
2022-12-04T05:02:26.938Z,3.00
2022-12-04T05:04:54.960Z,3.00
2022-12-04T05:07:25.236Z,3.00
2022-12-04T05:09:52.037Z,3.00
2022-12-04T05:12:18.712Z,3.00
2022-12-04T05:14:47.609Z,3.10
2022-12-04T05:17:19.554Z,3.10
2022-12-04T05:19:58.477Z,3.10
2022-12-04T05:22:32.368Z,3.10
2022-12-04T05:24:59.245Z,3.10
2022-12-04T05:27:28.709Z,3.10
2022-12-04T05:29:57.309Z,3.10
2022-12-04T05:32:29.471Z,3.10
2022-12-04T05:34:57.453Z,3.10
2022-12-04T05:37:24.828Z,3.10
2022-12-04T05:39:54.853Z,3.10
2022-12-04T05:42:49.367Z,3.10
2022-12-04T05:45:16.089Z,3.10
2022-12-04T05:47:45.230Z,3.10
2022-12-04T05:50:12.848Z,3.10
2022-12-04T05:52:39.663Z,3.10
2022-12-04T05:55:08.869Z,3.10
2022-12-04T05:57:35.463Z,3.10
2022-12-04T06:00:03.337Z,3.10
2022-12-04T06:02:38.275Z,3.10
2022-12-04T06:05:07.154Z,3.20
2022-12-04T06:07:36.770Z,3.20
2022-12-04T06:10:05.163Z,3.20
2022-12-04T06:12:32.003Z,3.20
2022-12-04T06:15:01.159Z,3.20
2022-12-04T06:17:27.996Z,3.20
2022-12-04T06:19:58.392Z,3.20
2022-12-04T06:22:25.250Z,3.20
2022-12-04T06:24:53.093Z,3.20
2022-12-04T06:27:29.293Z,3.10
2022-12-04T06:30:01.636Z,3.20
2022-12-04T06:32:28.378Z,3.10
2022-12-04T06:34:55.272Z,3.10
2022-12-04T06:37:24.516Z,3.20
2022-12-04T06:39:53.900Z,3.20
2022-12-04T06:42:27.279Z,3.20
2022-12-04T06:44:59.176Z,3.10
2022-12-04T06:47:28.472Z,3.10
2022-12-04T06:50:01.382Z,3.10
2022-12-04T06:52:31.598Z,3.10
2022-12-04T06:54:58.328Z,3.20
2022-12-04T06:57:24.973Z,3.20
2022-12-04T06:59:58.241Z,3.20
2022-12-04T07:02:27.459Z,3.20
2022-12-04T07:04:58.025Z,3.20
2022-12-04T07:07:24.745Z,3.20
2022-12-04T07:09:57.439Z,3.30
2022-12-04T07:12:25.688Z,3.20
2022-12-04T07:14:52.300Z,3.20
2022-12-04T07:17:22.779Z,3.30
2022-12-04T07:19:49.560Z,3.30
2022-12-04T07:22:17.259Z,3.30
2022-12-04T07:24:43.821Z,3.30
2022-12-04T07:27:10.417Z,3.30
2022-12-04T07:29:38.466Z,3.30
2022-12-04T07:32:06.103Z,3.30
2022-12-04T07:34:35.118Z,3.30
2022-12-04T07:37:01.817Z,3.30
2022-12-04T07:39:31.796Z,3.30
2022-12-04T07:42:27.925Z,3.30
2022-12-04T07:44:54.661Z,3.30
2022-12-04T07:47:24.450Z,3.30
2022-12-04T07:49:51.041Z,3.30
2022-12-04T07:52:17.649Z,3.30
2022-12-04T07:54:44.498Z,3.30
2022-12-04T07:57:15.712Z,3.30
2022-12-04T07:59:42.315Z,3.30
2022-12-04T08:02:08.965Z,3.30
2022-12-04T08:04:36.485Z,3.30
2022-12-04T08:07:05.864Z,3.40
2022-12-04T08:09:32.439Z,3.40
2022-12-04T08:11:59.042Z,3.30
2022-12-04T08:14:26.723Z,3.40
2022-12-04T08:16:55.475Z,3.40
2022-12-04T08:19:22.643Z,3.40
2022-12-04T08:21:49.559Z,3.40
2022-12-04T08:24:18.564Z,3.40
2022-12-04T08:26:45.141Z,3.40
2022-12-04T08:29:17.924Z,3.40
2022-12-04T08:31:44.453Z,3.50
2022-12-04T08:34:10.973Z,3.50
2022-12-04T08:36:43.796Z,3.50
2022-12-04T08:39:12.070Z,3.50
2022-12-04T08:41:38.642Z,3.50
2022-12-04T08:44:09.440Z,3.60
2022-12-04T08:46:41.368Z,3.60
2022-12-04T08:49:08.170Z,3.50
2022-12-04T08:51:39.302Z,3.50
2022-12-04T08:54:08.415Z,3.50
2022-12-04T08:56:36.725Z,3.50
2022-12-04T08:59:03.807Z,3.40
2022-12-04T09:01:34.284Z,3.40
2022-12-04T09:04:01.185Z,3.40
2022-12-04T09:06:27.848Z,3.40
2022-12-04T09:08:55.862Z,3.40
2022-12-04T09:11:27.591Z,3.50
2022-12-04T09:13:55.161Z,3.50
2022-12-04T09:16:23.609Z,3.50
2022-12-04T09:18:50.739Z,3.50
2022-12-04T09:21:19.017Z,3.50
2022-12-04T09:23:46.348Z,3.50
2022-12-04T09:26:29.106Z,3.50
2022-12-04T09:29:02.947Z,3.60
2022-12-04T09:31:30.318Z,3.60
2022-12-04T09:34:00.962Z,3.60
2022-12-04T09:36:33.764Z,3.70
2022-12-04T09:39:02.903Z,3.70
2022-12-04T09:41:35.691Z,3.70
2022-12-04T09:44:13.973Z,3.70
2022-12-04T09:47:10.935Z,3.70
2022-12-04T09:49:52.654Z,3.70
2022-12-04T09:52:31.273Z,3.70
2022-12-04T09:55:11.567Z,3.70
2022-12-04T09:57:43.038Z,3.70
2022-12-04T10:00:18.264Z,3.70
2022-12-04T10:02:50.942Z,3.80
2022-12-04T10:05:27.712Z,3.70
2022-12-04T10:08:16.123Z,3.70
2022-12-04T10:10:56.685Z,3.70
2022-12-04T10:14:00.265Z,3.70
2022-12-04T10:16:50.314Z,3.70
2022-12-04T10:19:41.758Z,3.70
2022-12-04T10:22:37.516Z,3.80
2022-12-04T10:25:17.712Z,3.70
2022-12-04T10:27:49.113Z,3.70
2022-12-04T10:30:20.296Z,3.70
2022-12-04T10:32:48.182Z,3.80
2022-12-04T10:35:22.423Z,3.80
2022-12-04T10:38:05.703Z,3.80
2022-12-04T10:40:43.377Z,3.80
2022-12-04T10:43:23.879Z,3.80
2022-12-04T10:45:52.061Z,3.80
2022-12-04T10:48:23.541Z,3.80
2022-12-04T10:50:52.512Z,3.80
2022-12-04T10:53:28.356Z,3.90
2022-12-04T10:56:32.728Z,3.90
2022-12-04T10:59:06.146Z,3.90
2022-12-04T11:02:06.982Z,3.90
2022-12-04T11:04:41.205Z,3.80
2022-12-04T11:07:26.775Z,3.80
2022-12-04T11:09:59.394Z,3.80
2022-12-04T11:12:26.131Z,3.80
2022-12-04T11:15:19.143Z,3.80
2022-12-04T11:17:51.778Z,3.80
2022-12-04T11:20:29.981Z,3.80
2022-12-04T11:22:58.384Z,3.90
2022-12-04T11:25:32.203Z,3.90
2022-12-04T11:28:03.658Z,3.90
2022-12-04T11:30:37.824Z,3.90
2022-12-04T11:33:15.062Z,3.90
2022-12-04T11:35:44.241Z,3.90
2022-12-04T11:38:16.287Z,3.90
2022-12-04T11:40:52.577Z,3.90
2022-12-04T11:43:19.930Z,4.00
2022-12-04T11:46:19.017Z,3.90
2022-12-04T11:48:50.784Z,3.90
2022-12-04T11:51:36.208Z,3.90
2022-12-04T11:54:12.348Z,3.80
2022-12-04T11:56:50.323Z,3.80
2022-12-04T11:59:52.288Z,3.70
2022-12-04T12:02:42.689Z,3.70
2022-12-04T12:05:42.143Z,3.80
2022-12-04T12:08:41.940Z,3.80
2022-12-04T12:11:28.490Z,3.80
2022-12-04T12:14:07.934Z,3.80
2022-12-04T12:16:40.426Z,3.80
2022-12-04T12:19:13.033Z,3.80
2022-12-04T12:22:21.033Z,3.80
2022-12-04T12:25:30.898Z,3.90
2022-12-04T12:28:04.903Z,3.90
2022-12-04T12:30:50.512Z,3.90
2022-12-04T12:33:28.874Z,4.00
2022-12-04T12:36:13.346Z,4.00
2022-12-04T12:39:13.406Z,4.00
2022-12-04T12:41:54.006Z,4.10
2022-12-04T12:44:43.502Z,4.10
2022-12-04T12:47:37.152Z,4.10
2022-12-04T12:50:17.734Z,4.10
2022-12-04T12:53:11.037Z,4.10
2022-12-04T12:55:47.992Z,4.10
2022-12-04T12:58:37.375Z,4.10
2022-12-04T13:01:28.620Z,4.10
2022-12-04T13:04:15.285Z,4.20
2022-12-04T13:06:55.450Z,4.20
2022-12-04T13:09:26.915Z,4.10
2022-12-04T13:12:02.861Z,4.10
2022-12-04T13:14:32.124Z,4.10
2022-12-04T13:17:15.782Z,4.00
2022-12-04T13:19:52.884Z,4.10
2022-12-04T13:22:41.027Z,4.10
2022-12-04T13:25:35.902Z,4.20
2022-12-04T13:28:17.940Z,4.20
2022-12-04T13:31:02.433Z,4.10
2022-12-04T13:33:54.014Z,4.10
2022-12-04T13:36:33.271Z,4.10
2022-12-04T13:39:35.076Z,4.10
2022-12-04T13:42:05.794Z,4.10
2022-12-04T13:44:34.754Z,4.20
2022-12-04T13:47:07.451Z,4.20
2022-12-04T13:49:41.439Z,4.20
2022-12-04T13:52:39.992Z,4.20
2022-12-04T13:55:30.721Z,4.20
2022-12-04T13:58:05.016Z,4.20
2022-12-04T14:00:34.678Z,4.20
2022-12-04T14:03:20.390Z,4.20
2022-12-04T14:05:47.590Z,4.20
2022-12-04T14:08:24.669Z,4.10
2022-12-04T14:11:05.980Z,4.10
2022-12-04T14:14:04.956Z,4.10
2022-12-04T14:16:42.221Z,4.10
2022-12-04T14:19:37.348Z,4.20
2022-12-04T14:22:08.240Z,4.20
2022-12-04T14:24:39.102Z,4.10
2022-12-04T14:27:51.037Z,4.20
2022-12-04T14:30:42.079Z,4.20
2022-12-04T14:33:21.665Z,4.20
2022-12-04T14:36:01.902Z,4.20
2022-12-04T14:38:29.087Z,4.20
2022-12-04T14:40:57.374Z,4.20
2022-12-04T14:43:36.927Z,4.20
2022-12-04T14:46:22.457Z,4.20
2022-12-04T14:49:12.080Z,4.30
2022-12-04T14:52:12.319Z,4.20
2022-12-04T14:55:06.762Z,4.30
2022-12-04T14:57:59.803Z,4.20
2022-12-04T15:00:26.543Z,4.20
2022-12-04T15:02:59.378Z,4.20
2022-12-04T15:05:54.839Z,4.20
2022-12-04T15:08:21.738Z,4.20
2022-12-04T15:11:12.331Z,4.20
2022-12-04T15:13:45.278Z,4.20
2022-12-04T15:16:16.524Z,4.20
2022-12-04T15:19:01.217Z,4.10
2022-12-04T15:21:39.010Z,4.10
2022-12-04T15:24:10.468Z,4.10
2022-12-04T15:26:41.117Z,4.10
2022-12-04T15:29:08.932Z,4.10
2022-12-04T15:31:47.238Z,4.10
2022-12-04T15:34:18.243Z,4.10
2022-12-04T15:37:03.246Z,4.10
2022-12-04T15:39:33.907Z,4.00
2022-12-04T15:42:19.424Z,4.00
2022-12-04T15:47:50.206Z,4.00
2022-12-04T15:50:16.850Z,3.90
2022-12-04T15:53:29.367Z,3.90
2022-12-04T15:56:01.897Z,3.80
2022-12-04T15:58:56.753Z,3.80
2022-12-04T16:01:37.926Z,3.80
2022-12-04T16:04:21.369Z,3.80
2022-12-04T16:06:53.008Z,3.70
2022-12-04T16:09:51.400Z,3.70
2022-12-04T16:12:22.856Z,3.80
2022-12-04T16:14:56.591Z,3.80
2022-12-04T16:20:28.201Z,3.80
2022-12-04T16:22:55.207Z,3.80
2022-12-04T16:25:23.185Z,3.80
2022-12-04T16:27:53.365Z,3.90
2022-12-04T16:33:34.492Z,3.90
2022-12-04T16:36:01.402Z,3.90
2022-12-04T16:38:30.234Z,3.90
2022-12-04T16:40:57.326Z,3.90
2022-12-04T16:43:27.292Z,4.00
2022-12-04T16:45:59.733Z,4.00
2022-12-04T16:48:48.243Z,4.00
2022-12-04T16:51:17.114Z,4.00
2022-12-04T16:53:44.941Z,4.00
2022-12-04T16:59:13.424Z,4.00
2022-12-04T17:01:47.174Z,4.00
2022-12-04T17:04:30.332Z,4.00
2022-12-04T17:06:57.373Z,4.00
2022-12-04T17:09:25.114Z,4.00
2022-12-04T17:11:55.424Z,3.90
2022-12-04T17:14:24.362Z,3.90
2022-12-04T17:16:59.355Z,3.90
2022-12-04T17:19:28.609Z,3.90
2022-12-04T17:25:25.352Z,3.90
2022-12-04T17:30:45.541Z,3.90
2022-12-04T17:33:16.095Z,3.80
2022-12-04T17:35:48.372Z,3.80
2022-12-04T17:44:12.339Z,3.80
2022-12-04T17:46:39.481Z,3.80
2022-12-04T17:49:08.357Z,3.80
2022-12-04T17:51:35.101Z,3.90
2022-12-04T17:54:07.384Z,3.90
2022-12-04T17:59:23.382Z,3.90
2022-12-04T18:01:51.120Z,3.90
2022-12-04T18:04:22.357Z,3.90
2022-12-04T18:09:51.451Z,3.80
2022-12-04T18:18:25.635Z,3.90
2022-12-04T18:21:06.606Z,3.90
2022-12-04T18:23:33.548Z,3.90
2022-12-04T18:26:03.105Z,3.90
2022-12-04T18:31:34.529Z,3.90
2022-12-04T18:36:48.276Z,3.90
2022-12-04T18:39:17.711Z,3.90
2022-12-04T18:53:26.506Z,3.80
2022-12-04T18:55:54.029Z,3.80
2022-12-04T18:58:24.802Z,3.70
2022-12-04T19:00:51.874Z,3.70
2022-12-04T19:03:19.540Z,3.70
2022-12-04T19:06:11.968Z,3.70
2022-12-04T19:08:43.479Z,3.70
2022-12-04T19:11:27.427Z,3.70
2022-12-04T19:16:59.601Z,3.60
2022-12-04T19:19:32.456Z,3.60
2022-12-04T19:22:00.430Z,3.70
2022-12-04T19:24:29.393Z,3.70
2022-12-04T19:27:10.210Z,3.70
2022-12-04T19:29:38.733Z,3.70
2022-12-04T19:34:59.065Z,3.70
2022-12-04T19:40:17.390Z,3.70
2022-12-04T19:42:47.684Z,3.70
2022-12-04T19:45:16.574Z,3.80
2022-12-04T19:47:55.743Z,3.80
2022-12-04T19:50:23.234Z,3.80
2022-12-04T19:55:51.633Z,3.90
2022-12-04T19:58:18.294Z,3.90
2022-12-04T20:00:46.673Z,3.90
2022-12-04T20:03:13.483Z,3.80
2022-12-04T20:05:40.755Z,3.80
2022-12-04T20:11:17.215Z,3.70
2022-12-04T20:13:55.038Z,3.70
2022-12-04T20:16:24.153Z,3.70
2022-12-04T20:18:51.576Z,3.70
2022-12-04T20:21:19.766Z,3.70
2022-12-04T20:23:50.617Z,3.70
2022-12-04T20:26:29.603Z,3.70
2022-12-04T20:29:01.686Z,3.80
2022-12-04T20:35:17.242Z,3.70
2022-12-04T20:37:45.700Z,3.80
2022-12-04T20:40:15.448Z,3.80
2022-12-04T20:42:42.089Z,3.80
2022-12-04T20:45:10.316Z,3.80
2022-12-04T20:57:37.571Z,3.70
2022-12-04T21:00:10.616Z,3.70
2022-12-04T21:02:37.425Z,3.60
2022-12-04T21:05:04.598Z,3.70
2022-12-04T21:07:31.371Z,3.70
2022-12-04T21:09:58.543Z,3.70
2022-12-04T21:24:37.835Z,3.70
2022-12-04T21:27:09.791Z,3.70
2022-12-04T21:29:42.723Z,3.70
2022-12-04T21:32:11.580Z,3.70
2022-12-04T21:37:46.762Z,3.70
2022-12-04T21:40:15.373Z,3.70
2022-12-04T21:42:43.625Z,3.80
2022-12-04T21:45:12.403Z,3.80
2022-12-04T21:47:39.089Z,3.80
2022-12-04T21:50:06.593Z,3.90
2022-12-04T21:52:36.689Z,3.90
2022-12-04T21:55:09.709Z,3.90
2022-12-04T22:00:35.705Z,4.00
2022-12-04T22:03:03.738Z,4.00
2022-12-04T22:05:36.332Z,4.00
2022-12-04T22:13:45.163Z,4.00
2022-12-04T22:16:14.881Z,4.00
2022-12-04T22:18:47.699Z,4.00
2022-12-04T22:21:16.148Z,3.90
2022-12-04T22:23:45.332Z,3.90
2022-12-04T22:26:41.379Z,3.90
2022-12-04T22:31:47.877Z,3.90
2022-12-04T22:34:21.841Z,3.90
2022-12-04T22:36:52.885Z,3.90
2022-12-04T22:39:19.588Z,4.00
2022-12-04T22:45:10.771Z,4.00
2022-12-04T22:47:39.075Z,4.00
2022-12-04T22:50:09.024Z,4.00
2022-12-04T22:52:35.920Z,4.00
2022-12-04T22:55:04.863Z,4.00
2022-12-04T22:57:33.524Z,4.00
2022-12-04T23:02:45.753Z,4.10
2022-12-04T23:05:15.981Z,4.10
2022-12-04T23:07:46.414Z,4.10
2022-12-04T23:19:57.564Z,4.10
2022-12-04T23:25:17.896Z,4.10
2022-12-04T23:27:50.985Z,4.10
2022-12-04T23:30:21.410Z,4.20
2022-12-04T23:32:51.183Z,4.20
2022-12-04T23:35:20.964Z,4.10
2022-12-04T23:37:55.053Z,4.10
2022-12-04T23:46:12.922Z,4.10
2022-12-04T23:51:38.469Z,4.00
2022-12-04T23:56:56.013Z,3.90
2022-12-04T23:59:28.391Z,3.90
